createdAt,value
2018-09-25T00:02:02.702Z,86.00
2018-09-25T00:04:35.587Z,85.53
2018-09-25T00:07:08.600Z,85.55
2018-09-25T00:09:41.476Z,85.85
2018-09-25T00:12:14.347Z,85.86
2018-09-25T00:14:47.081Z,85.84
2018-09-25T00:17:21.170Z,86.06
2018-09-25T00:22:45.760Z,86.21
2018-09-25T00:25:19.146Z,86.56
2018-09-25T00:27:54.885Z,86.33
2018-09-25T00:30:27.852Z,86.12
2018-09-25T00:33:00.923Z,86.00
2018-09-25T00:35:34.290Z,86.49
2018-09-25T00:38:07.552Z,87.01
2018-09-25T00:40:40.516Z,87.38
2018-09-25T00:43:13.581Z,87.97
2018-09-25T00:45:48.163Z,87.54
2018-09-25T00:48:21.111Z,88.25
2018-09-25T00:50:56.815Z,87.92
2018-09-25T00:53:29.668Z,87.64
2018-09-25T00:56:03.922Z,88.20
2018-09-25T00:58:37.095Z,88.35
2018-09-25T01:01:10.064Z,88.15
2018-09-25T01:03:43.124Z,88.72
2018-09-25T01:06:15.963Z,88.80
2018-09-25T01:08:48.844Z,89.23
2018-09-25T01:11:21.831Z,88.87
2018-09-25T01:13:55.985Z,89.01
2018-09-25T01:16:28.891Z,88.96
2018-09-25T01:19:02.335Z,89.25
2018-09-25T01:21:35.587Z,89.01
2018-09-25T01:24:08.803Z,89.41
2018-09-25T01:26:42.294Z,88.91
2018-09-25T01:29:16.413Z,89.16
2018-09-25T01:31:49.608Z,88.93
2018-09-25T01:34:22.445Z,88.86
2018-09-25T01:36:55.453Z,88.76
2018-09-25T01:39:28.337Z,89.05
2018-09-25T01:42:01.410Z,88.65
2018-09-25T01:44:34.351Z,88.75
2018-09-25T01:47:07.453Z,88.70
2018-09-25T01:49:40.326Z,88.85
2018-09-25T01:52:13.573Z,89.00
2018-09-25T01:54:46.606Z,88.79
2018-09-25T01:57:19.692Z,88.67
2018-09-25T01:59:52.588Z,88.90
2018-09-25T02:02:25.396Z,88.78
2018-09-25T02:04:58.261Z,88.77
2018-09-25T02:07:31.403Z,88.78
2018-09-25T02:10:05.104Z,88.77
2018-09-25T02:12:38.502Z,89.28
2018-09-25T02:15:11.805Z,89.00
2018-09-25T02:17:44.838Z,89.07
2018-09-25T02:20:17.738Z,89.46
2018-09-25T02:22:51.667Z,89.32
2018-09-25T02:25:24.553Z,89.19
2018-09-25T02:27:57.430Z,89.08
2018-09-25T02:30:30.412Z,89.70
2018-09-25T02:33:03.490Z,89.74
2018-09-25T02:35:36.409Z,89.28
2018-09-25T02:38:09.495Z,89.43
2018-09-25T02:40:42.400Z,89.79
2018-09-25T02:43:15.479Z,90.06
2018-09-25T02:45:48.651Z,89.83
2018-09-25T02:48:21.611Z,89.84
2018-09-25T02:50:54.487Z,90.05
2018-09-25T02:53:27.468Z,89.87
2018-09-25T02:56:00.385Z,90.54
2018-09-25T02:58:33.448Z,90.67
2018-09-25T03:01:06.494Z,90.43
2018-09-25T03:03:39.576Z,90.39
2018-09-25T03:06:12.464Z,90.29
2018-09-25T03:08:45.523Z,90.63
2018-09-25T03:11:18.407Z,90.62
2018-09-25T03:13:51.345Z,90.65
2018-09-25T03:16:24.172Z,90.50
2018-09-25T03:18:57.079Z,90.65
2018-09-25T03:21:30.973Z,90.67
2018-09-25T03:24:04.754Z,90.62
2018-09-25T03:26:37.704Z,90.30
2018-09-25T03:29:11.437Z,90.52
2018-09-25T03:31:44.232Z,90.27
2018-09-25T03:34:17.163Z,90.32
2018-09-25T03:36:50.138Z,90.36
2018-09-25T03:39:22.998Z,90.19
2018-09-25T03:41:55.912Z,90.36
2018-09-25T03:44:28.991Z,90.48
2018-09-25T03:47:01.791Z,90.14
2018-09-25T03:49:34.771Z,90.50
2018-09-25T03:52:07.715Z,90.50
2018-09-25T03:54:40.730Z,89.97
2018-09-25T03:57:13.768Z,89.83
2018-09-25T03:59:46.807Z,89.86
2018-09-25T04:02:19.795Z,89.88
2018-09-25T04:04:52.764Z,89.43
2018-09-25T04:07:25.662Z,89.66
2018-09-25T04:09:58.605Z,89.60
2018-09-25T04:12:31.619Z,89.29
2018-09-25T04:15:04.835Z,89.27
2018-09-25T04:17:37.746Z,88.77
2018-09-25T04:20:10.676Z,89.22
2018-09-25T04:22:43.731Z,89.02
2018-09-25T04:25:16.593Z,89.18
2018-09-25T04:27:49.431Z,88.94
2018-09-25T04:30:22.391Z,88.83
2018-09-25T04:32:55.734Z,88.92
2018-09-25T04:35:28.602Z,88.63
2018-09-25T04:38:01.848Z,88.45
2018-09-25T04:40:34.773Z,89.05
2018-09-25T04:43:07.916Z,89.06
2018-09-25T04:45:40.880Z,88.98
2018-09-25T04:48:14.156Z,88.92
2018-09-25T04:50:47.398Z,89.01
2018-09-25T04:53:20.483Z,88.61
2018-09-25T04:55:53.494Z,88.46
2018-09-25T04:58:26.627Z,88.96
2018-09-25T05:01:00.176Z,88.62
2018-09-25T05:03:33.465Z,89.24
2018-09-25T05:06:14.693Z,89.32
2018-09-25T05:08:47.745Z,89.27
2018-09-25T05:11:28.140Z,89.33
2018-09-25T05:14:03.575Z,89.51
2018-09-25T05:16:38.768Z,89.53
2018-09-25T05:19:13.314Z,89.68
2018-09-25T05:21:46.498Z,89.17
2018-09-25T05:24:23.727Z,89.24
2018-09-25T05:26:57.678Z,88.87
2018-09-25T05:29:33.164Z,88.48
2018-09-25T05:32:06.810Z,88.63
2018-09-25T05:34:42.172Z,88.28
2018-09-25T05:37:17.013Z,87.54
2018-09-25T05:39:51.257Z,87.30
2018-09-25T05:42:24.219Z,87.62
2018-09-25T05:44:58.620Z,87.15
2018-09-25T05:47:32.751Z,87.29
2018-09-25T05:50:10.798Z,86.80
2018-09-25T05:52:47.645Z,86.40
2018-09-25T05:55:22.237Z,86.48
2018-09-25T05:57:55.392Z,86.17
2018-09-25T06:00:29.760Z,86.12
2018-09-25T06:03:08.146Z,86.61
2018-09-25T06:05:44.422Z,86.17
2018-09-25T06:11:14.091Z,86.27
2018-09-25T06:13:47.854Z,85.58
2018-09-25T06:16:38.464Z,85.38
2018-09-25T06:19:13.155Z,84.87
2018-09-25T06:21:49.893Z,85.06
2018-09-25T06:24:22.938Z,84.42
2018-09-25T06:26:55.889Z,84.39
2018-09-25T06:29:28.776Z,83.86
2018-09-25T06:32:02.802Z,84.39
2018-09-25T06:34:46.028Z,83.54
2018-09-25T06:37:20.673Z,83.19
2018-09-25T06:39:55.996Z,82.32
2018-09-25T06:42:32.564Z,81.78
2018-09-25T06:45:07.313Z,81.41
2018-09-25T06:47:40.377Z,80.95
2018-09-25T06:50:14.556Z,80.04
2018-09-25T06:53:02.845Z,79.47
2018-09-25T06:55:44.151Z,79.24
2018-09-25T06:58:17.657Z,78.14
2018-09-25T07:00:50.705Z,77.95
2018-09-25T07:03:25.891Z,77.01
2018-09-25T07:05:59.207Z,75.37
2018-09-25T07:08:32.200Z,74.68
2018-09-25T07:11:05.511Z,74.43
2018-09-25T07:13:39.004Z,73.00
2018-09-25T07:16:12.447Z,72.33
2018-09-25T07:18:45.656Z,72.01
2018-09-25T07:21:18.943Z,70.73
2018-09-25T07:23:51.961Z,69.33
2018-09-25T07:26:24.814Z,68.67
2018-09-25T07:28:58.925Z,69.72
2018-09-25T07:31:32.098Z,66.65
2018-09-25T07:34:08.260Z,65.73
2018-09-25T07:36:42.833Z,64.54
2018-09-25T07:39:23.292Z,63.92
2018-09-25T07:41:57.814Z,62.70
2018-09-25T07:44:31.051Z,64.04
2018-09-25T07:47:04.373Z,61.92
2018-09-25T07:49:37.771Z,60.18
2018-09-25T07:52:11.131Z,60.53
2018-09-25T07:54:56.038Z,59.00
2018-09-25T07:57:32.549Z,59.80
2018-09-25T08:00:07.182Z,57.69
2018-09-25T08:02:41.676Z,58.06
2018-09-25T08:05:17.638Z,57.30
2018-09-25T08:07:52.842Z,55.28
2018-09-25T08:10:27.857Z,54.02
2018-09-25T08:13:03.322Z,53.48
2018-09-25T08:15:37.803Z,53.40
2018-09-25T08:18:11.958Z,55.14
2018-09-25T08:20:48.984Z,53.35
2018-09-25T08:23:24.135Z,52.16
2018-09-25T08:26:02.313Z,51.85
2018-09-25T08:28:36.788Z,51.79
2018-09-25T08:31:15.358Z,51.08
2018-09-25T08:33:54.142Z,50.65
2018-09-25T08:36:28.343Z,51.37
2018-09-25T08:39:01.715Z,50.67
2018-09-25T08:41:35.115Z,51.15
2018-09-25T08:44:10.117Z,51.17
2018-09-25T08:46:43.970Z,51.74
2018-09-25T08:49:17.433Z,52.06
2018-09-25T08:51:53.973Z,50.37
2018-09-25T08:54:27.295Z,50.25
2018-09-25T08:57:01.426Z,50.39
2018-09-25T08:59:34.741Z,52.92
2018-09-25T09:02:10.962Z,54.58
2018-09-25T09:04:47.495Z,54.12
2018-09-25T09:07:21.224Z,51.23
2018-09-25T09:09:54.587Z,50.90
2018-09-25T09:12:27.587Z,49.24
2018-09-25T09:15:01.863Z,47.72
2018-09-25T09:17:34.811Z,45.46
2018-09-25T09:20:07.755Z,44.35
2018-09-25T09:22:45.324Z,44.59
2018-09-25T09:25:18.775Z,43.47
2018-09-25T09:27:54.413Z,44.71
2018-09-25T09:30:27.910Z,43.59
2018-09-25T09:33:07.207Z,42.53
2018-09-25T09:35:42.320Z,41.60
2018-09-25T09:38:15.399Z,41.45
2018-09-25T09:40:51.374Z,40.61
2018-09-25T09:43:27.094Z,40.05
2018-09-25T09:46:00.146Z,39.41
2018-09-25T09:48:35.551Z,40.88
2018-09-25T09:51:15.975Z,41.33
2018-09-25T09:53:50.837Z,38.36
2018-09-25T09:56:24.329Z,40.27
2018-09-25T09:58:59.905Z,42.26
2018-09-25T10:01:45.071Z,42.16
2018-09-25T10:04:19.998Z,41.72
2018-09-25T10:06:53.069Z,41.97
2018-09-25T10:09:26.377Z,43.25
2018-09-25T10:11:59.786Z,42.65
2018-09-25T10:14:32.940Z,43.09
2018-09-25T10:17:06.187Z,43.34
2018-09-25T10:19:39.464Z,43.80
2018-09-25T10:22:12.718Z,42.66
2018-09-25T10:24:47.864Z,42.04
2018-09-25T10:27:23.358Z,41.29
2018-09-25T10:30:00.590Z,41.24
2018-09-25T10:35:13.098Z,42.91
2018-09-25T10:37:46.365Z,41.10
2018-09-25T10:40:21.860Z,39.56
2018-09-25T10:42:55.268Z,39.41
2018-09-25T10:45:28.403Z,40.27
2018-09-25T10:48:01.730Z,38.06
2018-09-25T10:50:35.721Z,38.64
2018-09-25T10:53:09.311Z,37.78
2018-09-25T10:55:42.858Z,36.07
2018-09-25T10:58:15.971Z,37.30
2018-09-25T11:00:49.205Z,38.21
2018-09-25T11:03:29.524Z,42.17
2018-09-25T11:06:03.265Z,42.98
2018-09-25T11:08:38.265Z,44.09
2018-09-25T11:11:17.121Z,44.55
2018-09-25T11:13:50.373Z,43.14
2018-09-25T11:16:24.176Z,40.45
2018-09-25T11:19:01.001Z,38.75
2018-09-25T11:21:59.326Z,40.39
2018-09-25T11:24:33.944Z,42.20
2018-09-25T11:27:08.479Z,43.78
2018-09-25T11:29:47.717Z,44.16
2018-09-25T11:32:26.899Z,41.97
2018-09-25T11:35:00.076Z,39.81
2018-09-25T11:37:33.196Z,40.87
2018-09-25T11:40:07.095Z,42.32
2018-09-25T11:42:42.252Z,44.04
2018-09-25T11:45:17.598Z,45.87
2018-09-25T11:47:52.645Z,46.92
2018-09-25T11:50:29.576Z,46.03
2018-09-25T11:53:02.745Z,40.41
2018-09-25T11:55:35.680Z,39.45
2018-09-25T11:58:09.465Z,39.57
2018-09-25T12:00:47.723Z,37.68
2018-09-25T12:03:25.909Z,37.34
2018-09-25T12:05:59.464Z,38.30
2018-09-25T12:08:32.813Z,40.09
2018-09-25T12:11:06.011Z,41.30
2018-09-25T12:13:42.298Z,42.58
2018-09-25T12:16:15.871Z,41.77
2018-09-25T12:21:32.022Z,38.70
2018-09-25T12:24:06.676Z,39.43
2018-09-25T12:26:44.195Z,37.97
2018-09-25T12:29:20.738Z,37.54
2018-09-25T12:31:54.890Z,37.10
2018-09-25T12:34:30.101Z,36.12
2018-09-25T12:37:03.655Z,35.68
2018-09-25T12:39:39.047Z,36.27
2018-09-25T12:42:14.272Z,36.21
2018-09-25T12:44:49.639Z,35.73
2018-09-25T12:47:26.510Z,35.47
2018-09-25T12:50:04.885Z,36.85
2018-09-25T12:52:41.169Z,38.41
2018-09-25T12:55:14.381Z,39.11
2018-09-25T12:57:47.744Z,39.36
2018-09-25T13:00:20.676Z,39.86
2018-09-25T13:02:55.183Z,41.00
2018-09-25T13:05:32.834Z,40.74
2018-09-25T13:08:09.303Z,40.76
2018-09-25T13:10:43.049Z,39.94
2018-09-25T13:13:18.743Z,39.93
2018-09-25T13:15:52.943Z,39.94
2018-09-25T13:18:26.088Z,39.30
2018-09-25T13:21:00.935Z,40.08
2018-09-25T13:23:34.168Z,39.97
2018-09-25T13:26:08.278Z,41.21
2018-09-25T13:28:42.524Z,39.68
2018-09-25T13:31:17.204Z,38.58
2018-09-25T13:33:50.335Z,40.39
2018-09-25T13:36:25.969Z,40.43
2018-09-25T13:38:59.231Z,40.20
2018-09-25T13:41:32.409Z,39.78
2018-09-25T13:44:05.512Z,42.42
2018-09-25T13:46:38.961Z,42.03
2018-09-25T13:49:13.216Z,41.86
2018-09-25T13:51:46.252Z,41.83
2018-09-25T13:54:31.971Z,41.58
2018-09-25T13:57:15.754Z,42.01
2018-09-25T13:59:59.605Z,41.12
2018-09-25T14:02:44.749Z,41.62
2018-09-25T14:05:28.645Z,41.34
2018-09-25T14:08:13.466Z,40.87
2018-09-25T14:10:58.891Z,41.32
2018-09-25T14:13:47.511Z,40.69
2018-09-25T14:16:32.846Z,41.33
2018-09-25T14:19:18.481Z,39.81
2018-09-25T14:21:51.710Z,40.32
2018-09-25T14:24:25.057Z,40.57
2018-09-25T14:26:58.248Z,41.38
2018-09-25T14:29:31.425Z,41.58
2018-09-25T14:32:04.692Z,39.00
2018-09-25T14:34:38.058Z,37.73
2018-09-25T14:37:11.520Z,38.18
2018-09-25T14:39:45.085Z,39.13
2018-09-25T14:42:18.323Z,39.82
2018-09-25T14:44:52.323Z,40.08
2018-09-25T14:47:25.726Z,40.28
2018-09-25T14:50:01.605Z,39.32
2018-09-25T14:52:34.947Z,39.38
2018-09-25T14:55:08.419Z,39.11
2018-09-25T14:57:41.542Z,39.19
2018-09-25T15:00:14.582Z,39.55
2018-09-25T15:02:48.105Z,41.10
2018-09-25T15:05:22.363Z,42.32
2018-09-25T15:07:55.817Z,42.52
2018-09-25T15:10:29.870Z,42.31
2018-09-25T15:13:05.842Z,42.41
2018-09-25T15:15:42.905Z,42.10
2018-09-25T15:18:18.506Z,42.16
2018-09-25T15:20:53.701Z,43.33
2018-09-25T15:23:26.935Z,42.57
2018-09-25T15:26:00.707Z,43.57
2018-09-25T15:28:33.928Z,42.28
2018-09-25T15:31:07.692Z,42.91
2018-09-25T15:33:55.880Z,43.46
2018-09-25T15:36:30.844Z,44.04
2018-09-25T15:39:05.293Z,44.64
2018-09-25T15:41:39.602Z,45.11
2018-09-25T15:44:14.279Z,45.79
2018-09-25T15:46:49.670Z,45.57
2018-09-25T15:49:22.809Z,46.13
2018-09-25T15:51:56.545Z,46.39
2018-09-25T15:54:37.850Z,46.19
2018-09-25T15:57:12.087Z,45.52
2018-09-25T15:59:45.265Z,45.76
2018-09-25T16:02:18.675Z,45.65
2018-09-25T16:04:52.195Z,45.33
2018-09-25T16:07:25.304Z,45.92
2018-09-25T16:09:58.297Z,44.46
2018-09-25T16:12:31.622Z,46.08
2018-09-25T16:15:04.795Z,46.61
2018-09-25T16:17:41.370Z,46.67
2018-09-25T16:20:15.004Z,45.30
2018-09-25T16:22:52.739Z,45.33
2018-09-25T16:25:28.303Z,45.64
2018-09-25T16:28:01.547Z,45.14
2018-09-25T16:30:36.063Z,46.34
2018-09-25T16:33:09.204Z,45.26
2018-09-25T16:35:42.968Z,46.01
2018-09-25T16:38:15.998Z,51.73
2018-09-25T16:40:49.186Z,56.26
2018-09-25T16:43:22.242Z,57.10
2018-09-25T16:45:56.024Z,57.98
2018-09-25T16:48:31.821Z,59.02
2018-09-25T16:51:05.125Z,60.79
2018-09-25T16:53:38.486Z,62.43
2018-09-25T16:56:11.613Z,62.14
2018-09-25T16:58:44.735Z,62.08
2018-09-25T17:01:18.736Z,59.62
2018-09-25T17:03:56.071Z,59.45
2018-09-25T17:06:30.853Z,59.64
2018-09-25T17:09:04.332Z,60.63
2018-09-25T17:11:39.580Z,62.30
2018-09-25T17:14:12.772Z,61.47
2018-09-25T17:16:45.970Z,60.93
2018-09-25T17:19:19.543Z,61.85
2018-09-25T17:21:53.264Z,62.44
2018-09-25T17:24:26.781Z,64.55
2018-09-25T17:26:59.784Z,63.62
2018-09-25T17:29:32.876Z,64.69
2018-09-25T17:32:07.149Z,62.88
2018-09-25T17:34:47.643Z,64.48
2018-09-25T17:37:21.804Z,67.84
2018-09-25T17:39:55.171Z,67.00
2018-09-25T17:42:28.570Z,66.93
2018-09-25T17:45:02.063Z,67.15
2018-09-25T17:47:36.184Z,68.12
2018-09-25T17:50:09.925Z,68.98
2018-09-25T17:52:43.908Z,69.82
2018-09-25T17:55:23.652Z,69.34
2018-09-25T17:57:58.402Z,69.73
2018-09-25T18:00:33.448Z,69.59
2018-09-25T18:03:06.573Z,70.03
2018-09-25T18:05:39.955Z,70.32
2018-09-25T18:08:14.889Z,70.69
2018-09-25T18:10:47.964Z,71.24
2018-09-25T18:13:21.167Z,71.25
2018-09-25T18:15:54.371Z,70.96
2018-09-25T18:18:27.379Z,71.18
2018-09-25T18:21:00.372Z,71.74
2018-09-25T18:23:33.517Z,71.95
2018-09-25T18:26:06.545Z,72.21
2018-09-25T18:28:43.724Z,72.02
2018-09-25T18:31:16.666Z,71.10
2018-09-25T18:33:49.741Z,70.06
2018-09-25T18:36:22.942Z,69.89
2018-09-25T18:38:55.935Z,70.94
2018-09-25T18:41:29.167Z,71.12
2018-09-25T18:44:02.245Z,70.36
2018-09-25T18:46:35.758Z,71.36
2018-09-25T18:49:09.085Z,72.03
2018-09-25T18:51:43.256Z,73.07
2018-09-25T18:54:16.347Z,72.54
2018-09-25T18:56:50.575Z,72.90
2018-09-25T18:59:24.399Z,73.36
2018-09-25T19:01:57.587Z,74.01
2018-09-25T19:04:30.857Z,75.03
2018-09-25T19:07:05.462Z,75.26
2018-09-25T19:09:38.392Z,74.94
2018-09-25T19:12:14.831Z,73.47
2018-09-25T19:14:47.813Z,72.71
2018-09-25T19:17:20.727Z,71.62
2018-09-25T19:19:53.789Z,71.00
2018-09-25T19:22:26.911Z,71.21
2018-09-25T19:24:59.744Z,71.55
2018-09-25T19:27:32.886Z,72.79
2018-09-25T19:30:05.887Z,73.53
2018-09-25T19:32:39.563Z,73.54
2018-09-25T19:35:12.386Z,73.26
2018-09-25T19:37:45.324Z,74.10
2018-09-25T19:40:18.387Z,74.56
2018-09-25T19:42:54.952Z,74.74
2018-09-25T19:45:29.145Z,75.54
2018-09-25T19:48:01.997Z,74.91
2018-09-25T19:50:35.170Z,74.87
2018-09-25T19:53:08.358Z,75.19
2018-09-25T19:56:10.882Z,74.58
2018-09-25T19:58:45.017Z,74.75
2018-09-25T20:01:18.860Z,74.74
2018-09-25T20:03:51.936Z,73.93
2018-09-25T20:06:24.970Z,74.06
2018-09-25T20:08:58.429Z,74.11
2018-09-25T20:11:31.664Z,74.27
2018-09-25T20:14:04.599Z,74.75
2018-09-25T20:16:37.817Z,74.37
2018-09-25T20:19:11.178Z,73.84
2018-09-25T20:21:44.658Z,73.59
2018-09-25T20:24:18.019Z,74.19
2018-09-25T20:26:50.974Z,73.59
2018-09-25T20:29:26.329Z,74.23
2018-09-25T20:32:01.062Z,74.65
2018-09-25T20:34:34.368Z,73.67
2018-09-25T20:37:07.934Z,74.03
2018-09-25T20:39:43.162Z,74.85
2018-09-25T20:42:20.446Z,74.24
2018-09-25T20:44:53.627Z,74.14
2018-09-25T20:47:27.396Z,73.75
2018-09-25T20:50:01.614Z,74.31
2018-09-25T20:52:36.155Z,74.62
2018-09-25T20:55:09.448Z,75.23
2018-09-25T20:57:42.521Z,75.10
2018-09-25T21:00:21.268Z,74.15
2018-09-25T21:02:54.773Z,74.17
2018-09-25T21:05:27.734Z,74.53
2018-09-25T21:08:01.297Z,74.19
2018-09-25T21:10:34.304Z,73.98
2018-09-25T21:13:07.780Z,74.34
2018-09-25T21:15:41.004Z,74.27
2018-09-25T21:18:13.965Z,74.49
2018-09-25T21:20:46.941Z,74.62
2018-09-25T21:23:19.994Z,74.92
2018-09-25T21:25:52.934Z,74.42
2018-09-25T21:28:25.852Z,73.64
2018-09-25T21:30:59.251Z,73.74
2018-09-25T21:33:32.306Z,73.57
2018-09-25T21:36:05.267Z,73.08
2018-09-25T21:38:38.282Z,73.68
2018-09-25T21:41:11.764Z,73.21
2018-09-25T21:43:44.723Z,72.87
2018-09-25T21:46:17.850Z,72.79
2018-09-25T21:48:50.850Z,73.02
2018-09-25T21:51:23.998Z,72.50
2018-09-25T21:53:57.024Z,72.82
2018-09-25T21:56:30.555Z,72.84
2018-09-25T21:59:03.615Z,72.55
2018-09-25T22:01:36.480Z,72.26
2018-09-25T22:04:09.553Z,72.84
2018-09-25T22:06:42.467Z,74.09
2018-09-25T22:09:15.451Z,74.24
2018-09-25T22:11:48.475Z,73.68
2018-09-25T22:14:21.502Z,73.45
2018-09-25T22:16:54.940Z,73.28
2018-09-25T22:19:27.964Z,73.19
2018-09-25T22:22:01.135Z,73.75
2018-09-25T22:24:34.491Z,72.95
2018-09-25T22:27:07.451Z,73.52
2018-09-25T22:29:40.434Z,73.45
2018-09-25T22:32:23.135Z,73.71
2018-09-25T22:34:57.163Z,72.94
2018-09-25T22:37:30.078Z,73.28
2018-09-25T22:40:03.243Z,72.65
2018-09-25T22:42:38.217Z,72.98
2018-09-25T22:45:11.594Z,72.97
2018-09-25T22:47:52.800Z,73.76
2018-09-25T22:50:25.753Z,74.80
2018-09-25T22:53:01.568Z,72.91
2018-09-25T22:55:34.745Z,72.35
2018-09-25T22:58:07.802Z,71.47
2018-09-25T23:00:43.991Z,70.04
2018-09-25T23:03:25.227Z,69.68
2018-09-25T23:05:58.568Z,68.99
2018-09-25T23:08:37.813Z,68.50
2018-09-25T23:11:11.730Z,68.46
2018-09-25T23:13:44.551Z,68.60
2018-09-25T23:16:17.479Z,68.23
2018-09-25T23:18:51.433Z,68.45
2018-09-25T23:21:24.574Z,67.18
2018-09-25T23:23:57.528Z,67.41
2018-09-25T23:26:30.505Z,67.16
2018-09-25T23:29:03.530Z,67.53
2018-09-25T23:31:36.445Z,66.83
2018-09-25T23:34:09.556Z,66.37
2018-09-25T23:36:42.413Z,65.55
2018-09-25T23:39:14.972Z,65.77
2018-09-25T23:42:20.036Z,66.45
2018-09-25T23:44:54.627Z,66.89
2018-09-25T23:47:26.473Z,66.16
2018-09-25T23:50:00.796Z,64.91
2018-09-25T23:52:48.669Z,65.87
2018-09-25T23:55:23.245Z,65.48
2018-09-25T23:57:58.224Z,66.33
